Time;durP1;ratioP1;P1;durP2;ratioP2;P2;SDS_P1;SDS_P2;PMS_P1;PMS_P2;Temp;Humidity;BMP_temperature;BMP_pressure;BME280_temperature;BME280_humidity;BME280_pressure;Samples;Min_cycle;Max_cycle;Signal;HPM_P1;HPM_P2
2021/03/28 00:02:45;;;;;;;7.75;4.28;;;;;;;9.65;64.58;101724.41;5024481;28;19917;-76
2021/03/28 00:05:50;;;;;;;5.57;4.00;;;;;;;9.64;65.13;101732.56;5024976;28;20563;-76
2021/03/28 00:09:04;;;;;;;5.72;4.10;;;;;;;9.60;65.01;101734.56;5024592;28;20048;-76
2021/03/28 00:12:25;;;;;;;9.13;4.90;;;;;;;9.58;65.59;101732.94;5024573;28;20045;-76
2021/03/28 00:15:37;;;;;;;7.15;4.75;;;;;;;9.55;65.51;101728.66;5024858;28;20069;-78
2021/03/28 00:19:04;;;;;;;8.95;4.90;;;;;;;9.51;65.60;101732.44;5021581;28;20052;-77
2021/03/28 00:22:20;;;;;;;7.10;4.20;;;;;;;9.59;65.42;101740.03;5024488;28;20044;-79
2021/03/28 00:25:37;;;;;;;6.28;4.25;;;;;;;9.60;65.30;101737.22;5022489;28;20048;-75
2021/03/28 00:28:52;;;;;;;7.18;4.28;;;;;;;9.62;65.23;101743.38;5021673;28;20520;-77
2021/03/28 00:32:08;;;;;;;6.07;4.22;;;;;;;9.63;65.28;101746.91;5025905;28;20495;-81
2021/03/28 00:35:16;;;;;;;8.32;4.60;;;;;;;9.70;65.17;101751.78;5025014;28;20508;-79
2021/03/28 00:38:27;;;;;;;10.30;4.72;;;;;;;9.78;64.98;101760.22;5021685;28;20069;-74
2021/03/28 00:41:40;;;;;;;5.32;4.03;;;;;;;9.91;64.70;101752.28;5022118;28;20053;-80
2021/03/28 00:45:14;;;;;;;8.82;4.53;;;;;;;10.07;64.06;101762.94;5033692;28;20045;-74
2021/03/28 00:48:22;;;;;;;5.57;3.83;;;;;;;10.00;63.70;101766.97;4984433;28;20517;-77
2021/03/28 00:51:31;;;;;;;6.70;4.03;;;;;;;9.88;64.23;101763.19;4972080;28;20046;-75
2021/03/28 00:54:41;;;;;;;7.82;4.43;;;;;;;9.85;64.17;101767.91;4984593;28;20126;-76
2021/03/28 00:58:17;;;;;;;7.50;3.88;;;;;;;9.79;64.37;101769.16;4983401;28;20150;-75
2021/03/28 01:01:35;;;;;;;6.25;3.88;;;;;;;9.75;64.52;101773.00;4981638;28;20548;-78
2021/03/28 01:04:51;;;;;;;6.57;3.60;;;;;;;9.73;64.52;101774.88;4984218;28;20045;-76
2021/03/28 01:08:04;;;;;;;9.30;4.43;;;;;;;9.67;64.62;101765.41;4982806;28;20046;-80
2021/03/28 01:11:30;;;;;;;7.65;4.25;;;;;;;9.63;64.70;101769.22;4982094;28;20050;-76
2021/03/28 01:14:48;;;;;;;7.10;3.80;;;;;;;9.62;64.91;101766.66;4983503;28;20223;-77
2021/03/28 01:18:09;;;;;;;6.82;3.80;;;;;;;9.65;64.95;101771.81;4983152;28;20053;-76
2021/03/28 01:21:33;;;;;;;6.35;3.78;;;;;;;9.69;64.76;101763.50;4982085;28;20130;-78
2021/03/28 01:24:59;;;;;;;7.43;4.20;;;;;;;9.71;64.57;101758.91;5004544;28;20408;-80
2021/03/28 01:28:28;;;;;;;6.03;3.67;;;;;;;9.72;64.59;101752.59;5021615;28;20053;-78
2021/03/28 01:31:47;;;;;;;6.38;4.32;;;;;;;9.72;64.55;101755.28;5023743;28;20492;-76
2021/03/28 01:35:09;;;;;;;7.20;4.53;;;;;;;9.72;64.53;101749.91;5023367;28;20057;-78
2021/03/28 01:38:46;;;;;;;9.10;4.45;;;;;;;9.63;64.90;101746.91;5023938;28;20049;-80
2021/03/28 01:42:02;;;;;;;6.80;4.22;;;;;;;9.62;65.21;101756.78;5023061;28;20064;-74
2021/03/28 01:45:39;;;;;;;8.32;5.25;;;;;;;9.55;65.05;101746.53;5022009;28;20049;-74
2021/03/28 01:48:56;;;;;;;7.40;4.60;;;;;;;9.51;65.46;101745.84;5021249;28;20041;-74
2021/03/28 01:52:31;;;;;;;7.55;4.90;;;;;;;9.58;65.42;101746.34;5020287;28;20049;-75
2021/03/28 01:56:00;;;;;;;6.22;4.13;;;;;;;9.52;65.58;101749.41;5024076;28;20060;-77
2021/03/28 01:59:42;;;;;;;6.25;4.22;;;;;;;9.39;65.75;101761.81;5021282;28;20049;-79
2021/03/28 02:03:03;;;;;;;5.97;3.85;;;;;;;9.21;66.29;101749.53;5021516;28;20397;-76
2021/03/28 02:06:51;;;;;;;6.82;4.45;;;;;;;9.18;66.55;101761.31;5022008;28;20045;-78
2021/03/28 02:10:21;;;;;;;6.55;4.20;;;;;;;9.15;66.39;101754.31;5030391;28;20108;-77
2021/03/28 02:13:56;;;;;;;6.18;4.10;;;;;;;9.20;66.57;101762.06;5021263;28;20045;-78
2021/03/28 02:17:21;;;;;;;7.28;4.10;;;;;;;9.22;66.67;101767.31;5024509;28;20061;-78
2021/03/28 02:21:10;;;;;;;10.90;3.92;;;;;;;9.23;66.56;101763.69;5021248;28;20052;-76
2021/03/28 02:24:25;;;;;;;7.13;3.70;;;;;;;9.18;66.69;101769.34;5022958;28;20779;-76
2021/03/28 02:28:08;;;;;;;8.82;3.78;;;;;;;9.09;66.77;101768.06;5022233;28;20049;-82
2021/03/28 02:31:29;;;;;;;6.32;3.85;;;;;;;9.07;67.18;101774.44;4981856;28;20066;-76
2021/03/28 02:34:51;;;;;;;6.90;3.90;;;;;;;9.01;67.16;101780.19;4979394;28;20127;-76
2021/03/28 02:38:21;;;;;;;6.57;3.58;;;;;;;8.95;67.10;101781.41;4982056;28;20149;-76
2021/03/28 02:41:43;;;;;;;8.55;3.58;;;;;;;8.96;67.17;101783.09;4980659;28;20111;-78
2021/03/28 02:45:18;;;;;;;6.53;3.97;;;;;;;9.10;66.84;101783.19;4984310;28;20041;-76
2021/03/28 02:48:44;;;;;;;6.32;4.00;;;;;;;9.22;66.82;101781.59;4981034;28;20119;-79
2021/03/28 02:52:17;;;;;;;6.63;3.58;;;;;;;9.28;66.44;101789.28;4984353;28;20065;-77
2021/03/28 02:55:31;;;;;;;6.88;4.15;;;;;;;9.48;65.72;101791.59;4986632;28;20054;-75
2021/03/28 02:59:12;;;;;;;5.72;3.50;;;;;;;9.53;65.19;101796.69;4985977;28;20053;-78
2021/03/28 03:03:10;;;;;;;5.78;3.55;;;;;;;9.67;65.11;101797.59;4986492;28;20544;-76
2021/03/28 03:06:26;;;;;;;6.55;3.47;;;;;;;9.68;65.01;101796.63;4970382;28;20060;-77
2021/03/28 03:09:55;;;;;;;6.72;3.20;;;;;;;9.65;65.02;101799.47;5024211;28;20044;-76
2021/03/28 03:13:17;;;;;;;6.45;3.38;;;;;;;9.71;64.65;101801.78;5027475;28;20400;-79
2021/03/28 03:16:38;;;;;;;5.57;3.28;;;;;;;9.81;64.79;101810.13;5023155;28;20053;-75
2021/03/28 03:19:59;;;;;;;6.10;3.42;;;;;;;9.86;64.73;101808.03;5023795;28;20048;-79
2021/03/28 03:23:54;;;;;;;5.57;3.28;;;;;;;9.87;64.45;101804.41;5023487;28;20393;-75
2021/03/28 03:27:17;;;;;;;6.88;3.40;;;;;;;9.81;65.14;101819.03;5017825;28;20400;-79
2021/03/28 03:30:42;;;;;;;5.38;3.38;;;;;;;9.73;65.67;101818.66;5026483;28;20064;-75
2021/03/28 03:34:29;;;;;;;4.97;3.25;;;;;;;9.77;65.90;101822.88;5024064;28;20061;-77
2021/03/28 03:37:57;;;;;;;6.60;3.33;;;;;;;9.78;65.70;101829.94;5025232;28;20492;-77
2021/03/28 03:41:19;;;;;;;4.80;3.20;;;;;;;9.83;65.90;101835.91;5022980;28;20049;-75
2021/03/28 03:45:23;;;;;;;5.35;3.60;;;;;;;9.82;65.81;101836.00;5023085;28;20044;-78
2021/03/28 03:48:52;;;;;;;7.00;3.65;;;;;;;9.87;66.03;101833.91;5023325;28;20044;-77
2021/03/28 03:51:59;;;;;;;9.00;3.50;;;;;;;9.92;65.87;101845.22;5025932;28;20052;-74
2021/03/28 03:55:06;;;;;;;6.93;4.10;;;;;;;9.90;65.98;101844.41;5022961;28;20049;-75
2021/03/28 03:58:29;;;;;;;5.35;3.50;;;;;;;9.96;66.23;101852.09;5024020;28;20041;-76
2021/03/28 04:01:53;;;;;;;6.32;3.65;;;;;;;10.00;66.17;101855.47;5025631;28;20056;-77
2021/03/28 04:04:57;;;;;;;;;;;;;;;9.97;66.38;101858.34;5026631;28;20043;-78
2021/03/28 04:08:17;;;;;;;7.45;4.10;;;;;;;9.92;66.76;101865.81;5024653;28;19917;-79
2021/03/28 04:11:24;;;;;;;8.80;4.25;;;;;;;9.86;67.36;101860.78;5026455;28;20044;-79
2021/03/28 04:14:49;;;;;;;8.93;4.38;;;;;;;9.80;68.05;101860.22;5023921;28;20504;-75
2021/03/28 04:18:16;;;;;;;6.65;4.13;;;;;;;9.81;67.68;101864.63;5025177;28;20048;-76
2021/03/28 04:22:11;;;;;;;8.00;4.15;;;;;;;9.82;67.62;101857.47;5026305;28;20048;-76
2021/03/28 04:25:53;;;;;;;7.78;4.60;;;;;;;9.75;67.76;101862.31;5019104;28;20049;-85
2021/03/28 04:29:04;;;;;;;8.38;4.10;;;;;;;9.77;67.67;101868.47;5023204;28;20552;-77
2021/03/28 04:32:26;;;;;;;5.45;4.25;;;;;;;9.67;68.12;101875.34;5021708;28;20045;-76
2021/03/28 04:35:52;;;;;;;12.00;4.65;;;;;;;9.67;68.23;101878.03;5023944;28;20045;-83
2021/03/28 04:39:15;;;;;;;6.95;4.57;;;;;;;9.65;68.04;101882.56;5022882;28;20053;-76
2021/03/28 04:42:50;;;;;;;9.27;5.15;;;;;;;9.60;68.12;101889.19;5025884;28;20040;-79
2021/03/28 04:46:24;;;;;;;7.15;4.85;;;;;;;9.59;68.15;101893.69;5024414;28;20504;-74
2021/03/28 04:49:35;;;;;;;6.95;4.28;;;;;;;9.57;67.67;101892.06;5024383;28;20040;-79
2021/03/28 04:53:06;;;;;;;9.93;4.10;;;;;;;9.52;67.46;101905.72;5023075;28;20041;-74
2021/03/28 04:56:38;;;;;;;10.70;3.80;;;;;;;9.48;67.28;101901.47;5023765;28;20428;-77
2021/03/28 05:00:03;;;;;;;7.18;3.88;;;;;;;9.46;67.39;101914.13;5021247;28;20417;-74
2021/03/28 05:03:25;;;;;;;5.72;3.90;;;;;;;9.37;67.22;101911.97;5022417;28;20504;-75
2021/03/28 05:06:47;;;;;;;6.45;3.90;;;;;;;9.32;67.48;101916.75;5022659;28;20048;-77
2021/03/28 05:10:28;;;;;;;10.95;4.05;;;;;;;9.30;67.60;101910.59;5023669;28;20056;-77
2021/03/28 05:14:10;;;;;;;9.23;4.50;;;;;;;9.33;68.17;101925.66;5023673;28;20052;-79
2021/03/28 05:17:29;;;;;;;7.95;3.88;;;;;;;9.37;67.96;101927.19;5023900;28;20496;-78
2021/03/28 05:20:42;;;;;;;6.93;4.22;;;;;;;9.38;68.04;101929.78;5023706;28;20049;-75
2021/03/28 05:24:23;;;;;;;7.15;3.80;;;;;;;9.45;68.04;101932.97;5021152;28;20045;-76
2021/03/28 05:27:46;;;;;;;7.25;4.10;;;;;;;9.48;67.88;101932.81;5021981;28;20044;-75
2021/03/28 05:31:30;;;;;;;9.77;4.30;;;;;;;9.58;67.68;101934.84;5022667;28;20045;-74
2021/03/28 05:34:56;;;;;;;7.43;4.18;;;;;;;9.73;67.16;101936.63;5023605;28;20053;-77
2021/03/28 05:38:16;;;;;;;6.25;3.80;;;;;;;9.86;66.24;101941.25;5024531;28;20052;-76
2021/03/28 05:41:23;;;;;;;7.45;4.60;;;;;;;9.84;66.06;101946.72;5024682;28;20044;-80
2021/03/28 05:44:55;;;;;;;7.88;3.90;;;;;;;9.79;66.24;101944.31;5021893;28;20056;-78
2021/03/28 05:48:37;;;;;;;6.60;4.00;;;;;;;9.69;66.11;101955.66;5031738;28;20065;-77
2021/03/28 05:52:19;;;;;;;6.32;3.70;;;;;;;9.59;66.09;101960.72;5033835;28;20492;-81
2021/03/28 05:55:43;;;;;;;6.10;3.78;;;;;;;9.57;66.12;101965.28;5034221;28;20511;-74
2021/03/28 05:59:16;;;;;;;9.43;3.90;;;;;;;9.69;66.01;101975.31;5034438;28;20480;-76
2021/03/28 06:02:39;;;;;;;9.35;3.90;;;;;;;9.79;65.60;101968.44;5018859;28;20053;-79
2021/03/28 06:05:56;;;;;;;7.22;3.65;;;;;;;9.92;65.22;101967.72;5027501;28;20056;-80
2021/03/28 06:09:26;;;;;;;8.45;4.05;;;;;;;10.05;64.78;101977.63;5022370;28;20520;-75
2021/03/28 06:13:10;;;;;;;6.18;3.55;;;;;;;10.18;64.62;101985.84;5021524;28;20079;-80
2021/03/28 06:16:34;;;;;;;7.05;3.42;;;;;;;10.28;64.12;101982.50;5014111;28;20052;-82
2021/03/28 06:19:52;;;;;;;5.63;3.67;;;;;;;10.52;63.88;101982.81;5014369;28;20053;-83
2021/03/28 06:23:08;;;;;;;6.13;3.67;;;;;;;10.63;62.97;101988.41;5014087;28;20049;-75
2021/03/28 06:26:41;;;;;;;8.45;3.95;;;;;;;10.88;62.17;101974.31;5012193;28;20505;-75
2021/03/28 06:29:55;;;;;;;7.90;3.90;;;;;;;11.16;61.51;101992.22;5012000;28;20049;-79
2021/03/28 06:33:24;;;;;;;7.72;4.90;;;;;;;11.54;60.75;101986.06;5010955;28;20057;-80
2021/03/28 06:36:50;;;;;;;10.02;3.95;;;;;;;11.73;59.82;101994.69;5010787;28;20049;-79
2021/03/28 06:40:25;;;;;;;7.50;3.70;;;;;;;11.69;59.52;101998.53;5013056;28;20500;-79
2021/03/28 06:43:48;;;;;;;7.95;4.03;;;;;;;11.66;59.88;101996.03;5013135;28;20099;-80
2021/03/28 06:47:30;;;;;;;8.95;3.75;;;;;;;11.92;59.78;102001.53;5013793;28;20052;-76
2021/03/28 06:50:58;;;;;;;6.43;3.78;;;;;;;12.31;58.43;102002.38;5014057;28;20053;-76
2021/03/28 06:54:24;;;;;;;10.70;3.75;;;;;;;12.50;57.48;101995.69;5014040;28;20056;-80
2021/03/28 06:57:54;;;;;;;6.15;4.40;;;;;;;12.79;58.48;102003.47;5014088;28;20049;-76
2021/03/28 07:01:21;;;;;;;6.57;3.83;;;;;;;13.19;56.06;102004.19;5013988;28;20049;-75
2021/03/28 07:04:41;;;;;;;6.43;4.20;;;;;;;13.58;54.19;102003.09;5013894;28;20053;-80
2021/03/28 07:08:03;;;;;;;4.47;3.17;;;;;;;13.92;53.23;102005.03;5013068;28;20056;-80
2021/03/28 07:11:16;;;;;;;6.78;3.55;;;;;;;13.94;53.14;102013.00;5013920;28;20484;-79
2021/03/28 07:14:42;;;;;;;8.15;4.30;;;;;;;14.12;52.99;102014.31;5013273;28;20049;-79
2021/03/28 07:18:26;;;;;;;5.95;3.80;;;;;;;14.36;52.68;102012.47;5012677;28;20524;-76
2021/03/28 07:21:53;;;;;;;7.40;4.20;;;;;;;14.45;52.80;102019.84;5012351;28;20060;-75
2021/03/28 07:25:15;;;;;;;7.10;4.47;;;;;;;14.47;52.92;102020.56;5012902;28;20053;-75
2021/03/28 07:28:45;;;;;;;7.40;5.20;;;;;;;14.68;53.15;102029.72;5010948;28;20049;-82
2021/03/28 07:32:08;;;;;;;39.60;26.88;;;;;;;14.80;52.82;102036.88;4997665;28;20040;-78
2021/03/28 07:35:41;;;;;;;11.60;7.13;;;;;;;15.30;51.49;102034.69;5015177;28;20394;-77
2021/03/28 07:39:26;;;;;;;8.23;3.58;;;;;;;15.80;50.52;102041.41;5013478;28;20390;-74
2021/03/28 07:43:05;;;;;;;5.85;3.67;;;;;;;16.48;48.09;102041.00;5008123;28;20049;-75
2021/03/28 07:46:19;;;;;;;7.53;3.40;;;;;;;16.90;47.32;102040.88;5007147;28;20042;-80
2021/03/28 07:50:01;;;;;;;6.72;3.08;;;;;;;17.15;46.22;102044.16;4996892;28;20054;-80
2021/03/28 07:53:30;;;;;;;6.72;3.13;;;;;;;17.65;45.24;102045.09;4993306;28;20049;-76
2021/03/28 07:56:50;;;;;;;9.77;3.45;;;;;;;18.05;45.51;102041.28;4992737;28;20516;-76
2021/03/28 08:00:26;;;;;;;8.20;3.83;;;;;;;18.49;44.59;102052.63;4992503;28;20053;-76
2021/03/28 08:04:06;;;;;;;6.43;3.55;;;;;;;19.25;42.99;102049.72;4992910;28;20053;-76
2021/03/28 08:07:31;;;;;;;6.53;3.70;;;;;;;20.42;40.98;102046.13;4991545;28;20065;-76
2021/03/28 08:11:20;;;;;;;8.90;4.22;;;;;;;22.64;36.87;102042.03;4982452;28;20061;-75
2021/03/28 08:14:40;;;;;;;8.68;4.13;;;;;;;23.68;35.61;102042.81;4928782;28;20043;-73
2021/03/28 08:18:32;;;;;;;8.73;5.65;;;;;;;30.66;25.57;102039.00;4995140;28;20046;-75
2021/03/28 08:22:14;;;;;;;8.25;5.32;;;;;;;33.55;21.74;102038.63;4926034;29;20050;-73
2021/03/28 08:25:49;;;;;;;8.82;6.18;;;;;;;30.17;25.33;102043.34;4937028;29;20051;-74
2021/03/28 08:29:13;;;;;;;12.10;7.40;;;;;;;29.29;26.55;102048.81;4925845;29;20062;-75
2021/03/28 08:32:29;;;;;;;9.82;6.63;;;;;;;28.30;27.58;102051.53;4937000;29;20180;-74
2021/03/28 08:35:44;;;;;;;10.50;7.43;;;;;;;28.10;27.95;102058.06;4936765;29;20164;-75
2021/03/28 08:39:23;;;;;;;9.75;6.93;;;;;;;27.79;29.60;102055.81;4924507;29;20047;-74
2021/03/28 08:42:48;;;;;;;20.50;8.02;;;;;;;27.06;29.85;102054.53;4936625;29;20055;-74
2021/03/28 08:46:37;;;;;;;11.07;6.97;;;;;;;28.47;28.15;102059.44;4925207;29;20234;-76
2021/03/28 08:49:49;;;;;;;15.27;6.90;;;;;;;31.23;24.73;102048.94;4936350;29;20451;-74
2021/03/28 08:53:11;;;;;;;10.77;7.07;;;;;;;32.13;23.39;102048.91;4925288;29;20054;-74
2021/03/28 08:56:33;;;;;;;14.43;7.70;;;;;;;33.20;22.30;102058.97;4935938;29;20055;-74
2021/03/28 09:00:02;;;;;;;12.02;8.05;;;;;;;33.59;21.96;102040.66;4995142;28;20058;-74
2021/03/28 09:03:44;;;;;;;9.70;7.22;;;;;;;34.42;20.98;102042.88;4995896;28;20061;-74
2021/03/28 09:07:07;;;;;;;13.88;7.68;;;;;;;35.49;20.18;102041.56;5000024;28;20041;-80
2021/03/28 09:10:23;;;;;;;;;;;;;;;36.81;18.26;102043.91;5013090;28;20061;-82
2021/03/28 09:13:51;;;;;;;37.97;34.00;;;;;;;37.68;18.42;102041.41;5005808;28;19918;-79
2021/03/28 09:17:27;;;;;;;24.65;22.00;;;;;;;33.78;20.99;102047.75;5010265;28;20046;-77
2021/03/28 09:20:50;;;;;;;13.07;9.45;;;;;;;28.96;26.50;102054.38;5015176;28;20045;-78
2021/03/28 09:24:08;;;;;;;13.27;8.80;;;;;;;26.55;30.70;102052.16;5015406;28;20044;-79
2021/03/28 09:27:26;;;;;;;10.98;8.52;;;;;;;24.96;33.04;102053.06;5015365;28;20049;-76
2021/03/28 09:30:52;;;;;;;11.75;8.20;;;;;;;23.86;35.31;102068.09;5013411;28;20520;-84
2021/03/28 09:34:25;;;;;;;14.05;9.88;;;;;;;22.94;37.86;102075.19;4996368;28;20057;-79
2021/03/28 09:37:58;;;;;;;14.73;10.38;;;;;;;22.24;39.15;102077.56;5015231;28;20057;-84
2021/03/28 09:41:20;;;;;;;16.10;10.85;;;;;;;20.80;42.55;102092.19;5014349;28;20042;-80
2021/03/28 09:44:50;;;;;;;19.38;11.63;;;;;;;20.46;43.83;102088.47;5012369;28;20038;-75
2021/03/28 09:48:13;;;;;;;14.70;12.35;;;;;;;20.29;44.51;102089.34;5012768;28;20046;-74
2021/03/28 09:51:36;;;;;;;17.65;12.38;;;;;;;19.78;45.56;102093.50;5012662;28;20050;-74
2021/03/28 09:54:41;;;;;;;15.48;11.20;;;;;;;19.70;45.93;102087.94;5013801;28;20042;-74
2021/03/28 09:58:26;;;;;;;16.02;12.80;;;;;;;19.75;45.72;102085.63;5014665;28;20462;-74
2021/03/28 10:02:07;;;;;;;16.83;11.80;;;;;;;20.08;45.04;102082.25;5014574;28;20045;-74
2021/03/28 10:05:24;;;;;;;13.90;11.77;;;;;;;19.71;45.21;102091.53;5014513;28;20042;-73
2021/03/28 10:08:36;;;;;;;14.20;11.48;;;;;;;19.79;44.99;102078.88;5014390;28;20482;-75
2021/03/28 10:11:48;;;;;;;16.25;11.30;;;;;;;20.04;44.86;102082.72;5013653;28;20042;-75
2021/03/28 10:15:04;;;;;;;15.93;11.80;;;;;;;19.51;45.31;102071.69;5014354;28;20046;-73
2021/03/28 10:18:19;;;;;;;12.73;10.35;;;;;;;19.81;45.20;102065.94;5014354;28;20046;-75
2021/03/28 10:21:36;;;;;;;15.85;10.05;;;;;;;19.97;44.46;102071.56;5014264;28;20046;-74
2021/03/28 10:25:15;;;;;;;14.25;10.48;;;;;;;19.60;45.43;102067.22;5014315;28;20046;-74
2021/03/28 10:28:47;;;;;;;13.13;10.65;;;;;;;19.49;45.31;102076.44;5014308;28;20041;-74
2021/03/28 10:32:07;;;;;;;13.52;10.30;;;;;;;19.51;45.42;102063.53;5014083;28;20041;-75
2021/03/28 10:35:31;;;;;;;12.48;9.75;;;;;;;19.63;44.78;102054.13;5014118;28;20042;-74
2021/03/28 10:39:19;;;;;;;14.10;10.20;;;;;;;19.48;44.66;102064.69;5014077;28;20068;-76
2021/03/28 10:42:29;;;;;;;17.10;12.98;;;;;;;19.34;45.41;102064.28;5020370;28;20401;-74
2021/03/28 10:46:05;;;;;;;14.75;9.43;;;;;;;19.53;45.28;102053.31;5013968;28;20049;-74
2021/03/28 10:49:16;;;;;;;13.55;9.85;;;;;;;19.51;45.29;102060.81;5013920;28;20045;-74
2021/03/28 10:52:59;;;;;;;14.10;9.82;;;;;;;19.50;45.43;102048.22;5013903;28;20045;-75
2021/03/28 10:56:28;;;;;;;15.23;10.25;;;;;;;19.42;45.52;102048.97;5013833;28;20053;-74
2021/03/28 11:00:00;;;;;;;15.30;9.55;;;;;;;19.03;46.07;102049.22;5014010;28;20397;-75
2021/03/28 11:03:23;;;;;;;13.80;10.32;;;;;;;18.75;46.76;102040.13;5015749;28;20053;-74
2021/03/28 11:06:48;;;;;;;18.80;12.05;;;;;;;18.74;46.73;102038.41;5017161;28;20041;-74
2021/03/28 11:10:05;;;;;;;14.00;9.43;;;;;;;18.52;46.64;102039.59;5014780;28;20409;-78
2021/03/28 11:13:32;;;;;;;10.20;8.55;;;;;;;18.80;47.18;102041.41;5009397;28;20053;-75
2021/03/28 11:16:55;;;;;;;11.95;9.13;;;;;;;18.73;46.58;102042.13;5013180;28;20065;-75
2021/03/28 11:20:25;;;;;;;15.18;9.18;;;;;;;18.98;46.86;102038.78;5014762;28;20073;-74
2021/03/28 11:24:05;;;;;;;10.85;8.30;;;;;;;18.95;46.41;102035.50;5011052;28;20634;-77
2021/03/28 11:27:15;;;;;;;14.02;8.35;;;;;;;18.74;46.94;102031.09;5015491;28;20045;-75
2021/03/28 11:30:37;;;;;;;11.30;8.68;;;;;;;18.84;47.41;102028.34;5015601;28;20052;-74
2021/03/28 11:34:15;;;;;;;10.63;8.35;;;;;;;18.74;46.88;102025.66;5023153;28;20064;-73
2021/03/28 11:37:41;;;;;;;10.80;6.68;;;;;;;18.99;46.42;102026.88;5005074;28;20433;-77
2021/03/28 11:40:52;;;;;;;16.33;8.48;;;;;;;18.87;46.55;102016.31;5014777;28;20398;-79
2021/03/28 11:44:07;;;;;;;9.57;7.70;;;;;;;18.86;46.69;102020.06;5012516;28;20524;-77
2021/03/28 11:47:25;;;;;;;11.43;7.63;;;;;;;19.04;46.56;102018.25;5016537;28;20045;-78
2021/03/28 11:50:33;;;;;;;11.38;7.72;;;;;;;18.97;46.17;102008.97;5016120;28;20057;-76
2021/03/28 11:53:38;;;;;;;11.02;6.95;;;;;;;19.13;46.18;102009.22;5015883;28;20056;-74
2021/03/28 11:56:49;;;;;;;12.80;7.78;;;;;;;19.09;45.98;102002.34;5014844;28;20053;-78
2021/03/28 11:59:55;;;;;;;11.05;7.82;;;;;;;18.96;46.37;101999.13;5015391;28;20073;-79
2021/03/28 12:03:18;;;;;;;9.48;6.82;;;;;;;19.13;46.06;101995.59;5016779;28;20493;-77
2021/03/28 12:06:23;;;;;;;;;;;;;;;19.01;45.78;101997.63;5017148;28;20052;-82
2021/03/28 12:09:31;;;;;;;11.25;7.93;;;;;;;19.01;46.56;102002.25;5016493;28;19917;-83
2021/03/28 12:13:22;;;;;;;12.43;9.52;;;;;;;18.86;47.14;101998.28;5016525;28;20060;-81
2021/03/28 12:17:04;;;;;;;12.23;8.55;;;;;;;18.86;47.21;101992.84;5016336;28;20053;-76
2021/03/28 12:20:17;;;;;;;9.77;8.35;;;;;;;18.86;46.30;101995.56;5016059;28;20588;-81
2021/03/28 12:23:25;;;;;;;14.27;7.73;;;;;;;18.94;46.59;101990.22;5016115;28;20405;-77
2021/03/28 12:26:49;;;;;;;9.90;7.03;;;;;;;19.13;46.73;101988.31;5014394;28;20853;-80
2021/03/28 12:29:54;;;;;;;10.02;7.18;;;;;;;19.07;45.69;101977.13;5013976;28;20049;-80
2021/03/28 12:33:04;;;;;;;10.07;7.00;;;;;;;19.10;45.89;101974.13;5016187;28;20401;-86
2021/03/28 12:36:11;;;;;;;9.73;6.72;;;;;;;19.21;45.38;101977.50;5016135;28;20049;-80
2021/03/28 12:39:21;;;;;;;11.57;6.93;;;;;;;19.44;44.84;101969.81;5015746;28;20052;-83
2021/03/28 12:42:35;;;;;;;10.55;6.28;;;;;;;19.59;44.87;101976.47;5014663;28;20049;-81
2021/03/28 12:45:41;;;;;;;10.82;7.45;;;;;;;19.36;44.80;101966.94;5015757;28;20049;-78
2021/03/28 12:48:45;;;;;;;8.98;6.57;;;;;;;19.38;44.78;101971.28;5015169;28;20053;-81
2021/03/28 12:52:11;;;;;;;11.45;7.07;;;;;;;19.35;44.89;101965.25;5014894;28;20504;-82
2021/03/28 12:55:32;;;;;;;11.23;6.28;;;;;;;19.46;44.51;101948.72;4996281;28;20054;-77
2021/03/28 12:58:42;;;;;;;17.20;14.15;;;;;;;19.67;43.72;101957.47;4996268;28;20041;-83
2021/03/28 13:01:47;;;;;;;11.93;9.40;;;;;;;19.68;43.63;101961.91;5011528;28;20482;-84
2021/03/28 13:05:02;;;;;;;13.88;6.57;;;;;;;19.54;44.45;101951.53;5013921;28;20041;-84
2021/03/28 13:08:09;;;;;;;11.80;7.07;;;;;;;19.55;43.60;101957.84;5001198;28;20061;-85
2021/03/28 13:11:15;;;;;;;8.95;6.13;;;;;;;19.70;43.37;101957.16;4997727;28;20158;-78
2021/03/28 13:14:37;;;;;;;7.43;5.95;;;;;;;19.94;42.94;101938.34;5006085;28;20045;-80
2021/03/28 13:17:43;;;;;;;;;;;;;;;20.31;42.18;101943.63;5014486;28;20048;-78
2021/03/28 13:20:56;;;;;;;9.60;5.57;;;;;;;20.48;41.98;101936.38;4995010;28;19917;-76
2021/03/28 13:24:05;;;;;;;8.82;6.05;;;;;;;20.49;41.98;101933.50;5000206;28;20053;-82
2021/03/28 13:27:19;;;;;;;14.45;6.55;;;;;;;20.35;41.93;101931.34;4995623;28;20405;-80
2021/03/28 13:30:30;;;;;;;10.15;5.93;;;;;;;20.52;41.78;101930.44;5005650;28;20053;-77
2021/03/28 13:33:40;;;;;;;12.60;8.98;;;;;;;20.13;42.48;101932.69;5012543;28;20053;-75
2021/03/28 13:36:58;;;;;;;10.43;7.93;;;;;;;20.00;42.76;101928.66;5025760;28;20056;-73
2021/03/28 13:40:11;;;;;;;11.40;7.65;;;;;;;19.83;42.74;101927.66;5015469;28;20049;-79
2021/03/28 13:43:28;;;;;;;9.23;7.15;;;;;;;19.54;43.14;101935.19;5003720;28;20044;-76
2021/03/28 13:46:33;;;;;;;8.98;6.13;;;;;;;19.51;43.74;101930.06;5014007;28;20053;-84
2021/03/28 13:49:42;;;;;;;10.65;6.13;;;;;;;19.62;43.64;101921.66;5002883;28;20049;-76
2021/03/28 13:52:47;;;;;;;7.20;5.68;;;;;;;19.79;43.03;101920.81;5009849;28;20053;-80
2021/03/28 13:56:10;;;;;;;13.13;7.00;;;;;;;19.88;42.88;101917.13;4995224;28;20418;-83
2021/03/28 13:59:14;;;;;;;8.25;6.03;;;;;;;20.11;42.49;101912.06;5011672;28;20512;-78
2021/03/28 14:02:24;;;;;;;12.13;6.22;;;;;;;20.23;41.57;101905.38;5013598;28;20523;-80
2021/03/28 14:05:32;;;;;;;12.25;5.47;;;;;;;20.41;41.07;101908.03;5008494;28;20048;-83
2021/03/28 14:08:37;;;;;;;6.63;5.63;;;;;;;20.42;41.57;101904.28;5000370;28;20405;-82
2021/03/28 14:11:53;;;;;;;10.60;5.78;;;;;;;20.24;41.61;101907.09;5011736;28;20077;-83
2021/03/28 14:15:16;;;;;;;9.90;6.22;;;;;;;20.31;41.92;101901.84;5011444;28;20045;-80
2021/03/28 14:18:28;;;;;;;11.48;6.22;;;;;;;19.99;42.34;101899.69;4994885;28;20485;-78
2021/03/28 14:21:42;;;;;;;10.55;6.68;;;;;;;19.70;42.99;101901.81;5001122;28;20433;-79
2021/03/28 14:24:57;;;;;;;10.93;6.28;;;;;;;19.66;43.47;101900.41;4997200;28;20053;-79
2021/03/28 14:28:20;;;;;;;11.55;6.47;;;;;;;19.48;43.52;101903.97;5013673;28;20044;-79
2021/03/28 14:31:32;;;;;;;10.00;5.70;;;;;;;19.29;43.31;101901.38;5014344;28;20061;-77
2021/03/28 14:35:07;;;;;;;7.28;5.03;;;;;;;19.40;42.41;101894.88;5014039;28;20064;-79
2021/03/28 14:38:13;;;;;;;9.18;6.47;;;;;;;19.48;43.07;101884.91;5014037;28;20397;-76
2021/03/28 14:41:43;;;;;;;7.43;4.80;;;;;;;19.65;42.42;101888.69;5013237;28;20053;-78
2021/03/28 14:45:14;;;;;;;7.43;5.60;;;;;;;19.65;43.30;101885.94;5012574;28;20053;-77
2021/03/28 14:48:34;;;;;;;11.40;5.13;;;;;;;19.75;42.85;101888.59;5000127;28;20398;-81
2021/03/28 14:51:43;;;;;;;11.40;6.00;;;;;;;19.64;43.14;101889.69;5002384;28;20053;-78
2021/03/28 14:55:17;;;;;;;9.60;6.60;;;;;;;19.56;43.50;101884.13;4994236;28;20049;-80
2021/03/28 14:58:46;;;;;;;8.68;6.35;;;;;;;19.50;44.24;101879.34;5000860;28;20057;-79
2021/03/28 15:02:20;;;;;;;10.27;6.45;;;;;;;19.48;44.20;101875.88;4993343;28;20057;-79
2021/03/28 15:06:02;;;;;;;7.70;6.50;;;;;;;19.43;44.09;101889.09;5014125;28;20057;-79
2021/03/28 15:09:21;;;;;;;9.90;6.82;;;;;;;19.34;44.11;101890.00;5010555;28;20393;-80
2021/03/28 15:12:32;;;;;;;11.20;6.38;;;;;;;19.34;44.40;101885.41;4992784;28;20062;-77
2021/03/28 15:15:43;;;;;;;11.50;6.43;;;;;;;19.23;43.89;101888.34;5007510;28;20402;-79
2021/03/28 15:19:09;;;;;;;11.52;6.32;;;;;;;19.25;44.21;101894.53;5010189;28;20041;-80
2021/03/28 15:22:22;;;;;;;9.00;6.03;;;;;;;19.21;44.37;101875.91;5013971;28;20392;-77
2021/03/28 15:25:31;;;;;;;;;;;;;;;19.26;44.07;101870.84;5010072;28;20593;-82
2021/03/28 15:28:41;;;;;;;8.65;5.82;;;;;;;19.29;44.04;101878.72;5013615;28;19921;-75
2021/03/28 15:32:28;;;;;;;7.60;5.22;;;;;;;19.39;43.99;101865.94;5005562;28;20046;-76
2021/03/28 15:35:47;;;;;;;9.60;6.20;;;;;;;19.35;43.88;101867.22;4993870;28;20474;-80
2021/03/28 15:39:21;;;;;;;11.88;6.45;;;;;;;19.32;43.76;101876.56;4994319;28;20053;-80
2021/03/28 15:42:49;;;;;;;8.18;5.50;;;;;;;19.42;43.66;101871.94;4993969;28;20069;-78
2021/03/28 15:46:20;;;;;;;14.70;5.57;;;;;;;19.29;43.92;101876.84;4994115;28;20049;-79
2021/03/28 15:49:47;;;;;;;12.10;6.07;;;;;;;19.30;43.39;101873.13;4996098;28;20074;-78